sensor_id;sensor_type;location;lat;lon;timestamp;temperature;humidity
11908;DHT22;6014;47.690;9.130;2023-03-30T00:01:17;11.00;99.90
11908;DHT22;6014;47.690;9.130;2023-03-30T00:03:46;11.00;99.90
11908;DHT22;6014;47.690;9.130;2023-03-30T00:06:16;11.00;99.90
11908;DHT22;6014;47.690;9.130;2023-03-30T00:08:48;11.00;99.90
11908;DHT22;6014;47.690;9.130;2023-03-30T00:11:19;10.90;99.90
11908;DHT22;6014;47.690;9.130;2023-03-30T00:13:49;10.90;99.90
11908;DHT22;6014;47.690;9.130;2023-03-30T00:16:19;10.90;99.90
11908;DHT22;6014;47.690;9.130;2023-03-30T00:18:48;10.90;99.90
11908;DHT22;6014;47.690;9.130;2023-03-30T00:21:17;10.90;99.90
11908;DHT22;6014;47.690;9.130;2023-03-30T00:23:46;10.80;99.90
11908;DHT22;6014;47.690;9.130;2023-03-30T00:26:15;10.80;99.90
11908;DHT22;6014;47.690;9.130;2023-03-30T00:28:43;10.80;99.90
11908;DHT22;6014;47.690;9.130;2023-03-30T00:31:12;10.80;99.90
11908;DHT22;6014;47.690;9.130;2023-03-30T00:33:41;10.80;99.90
11908;DHT22;6014;47.690;9.130;2023-03-30T00:36:13;10.80;99.90
11908;DHT22;6014;47.690;9.130;2023-03-30T00:38:44;10.90;99.90
11908;DHT22;6014;47.690;9.130;2023-03-30T00:41:14;10.80;99.90
11908;DHT22;6014;47.690;9.130;2023-03-30T00:43:56;10.80;99.90
11908;DHT22;6014;47.690;9.130;2023-03-30T00:46:25;10.80;99.90
11908;DHT22;6014;47.690;9.130;2023-03-30T00:48:55;10.70;99.90
11908;DHT22;6014;47.690;9.130;2023-03-30T00:51:27;10.70;99.90
11908;DHT22;6014;47.690;9.130;2023-03-30T00:54:00;10.60;99.90
11908;DHT22;6014;47.690;9.130;2023-03-30T00:56:29;10.70;99.90
11908;DHT22;6014;47.690;9.130;2023-03-30T00:58:59;10.60;99.90
11908;DHT22;6014;47.690;9.130;2023-03-30T01:01:28;10.50;99.90
11908;DHT22;6014;47.690;9.130;2023-03-30T01:04:01;10.40;99.90
11908;DHT22;6014;47.690;9.130;2023-03-30T01:06:31;10.20;99.90
11908;DHT22;6014;47.690;9.130;2023-03-30T01:09:01;10.10;99.90
11908;DHT22;6014;47.690;9.130;2023-03-30T01:11:29;10.20;99.90
11908;DHT22;6014;47.690;9.130;2023-03-30T01:14:00;10.20;99.90
11908;DHT22;6014;47.690;9.130;2023-03-30T01:16:34;10.20;99.90
11908;DHT22;6014;47.690;9.130;2023-03-30T01:19:20;10.20;99.90
11908;DHT22;6014;47.690;9.130;2023-03-30T01:22:28;10.30;99.90
11908;DHT22;6014;47.690;9.130;2023-03-30T01:25:56;10.20;99.90
11908;DHT22;6014;47.690;9.130;2023-03-30T01:28:39;10.30;99.90
11908;DHT22;6014;47.690;9.130;2023-03-30T01:31:24;10.30;99.90
11908;DHT22;6014;47.690;9.130;2023-03-30T01:40:00;10.20;99.90
11908;DHT22;6014;47.690;9.130;2023-03-30T01:42:38;10.10;99.90
11908;DHT22;6014;47.690;9.130;2023-03-30T01:45:14;10.10;99.90
11908;DHT22;6014;47.690;9.130;2023-03-30T01:47:51;10.10;99.90
11908;DHT22;6014;47.690;9.130;2023-03-30T01:50:24;10.10;99.90
11908;DHT22;6014;47.690;9.130;2023-03-30T01:52:55;10.20;99.90
11908;DHT22;6014;47.690;9.130;2023-03-30T01:55:31;10.20;99.90
11908;DHT22;6014;47.690;9.130;2023-03-30T01:58:04;10.20;99.90
11908;DHT22;6014;47.690;9.130;2023-03-30T02:00:34;10.30;99.90
11908;DHT22;6014;47.690;9.130;2023-03-30T02:03:06;10.30;99.90
11908;DHT22;6014;47.690;9.130;2023-03-30T02:05:37;10.40;99.90
11908;DHT22;6014;47.690;9.130;2023-03-30T02:08:08;10.40;99.90
11908;DHT22;6014;47.690;9.130;2023-03-30T02:10:38;10.40;99.90
11908;DHT22;6014;47.690;9.130;2023-03-30T02:13:07;10.40;99.90
11908;DHT22;6014;47.690;9.130;2023-03-30T02:15:40;10.40;99.90
11908;DHT22;6014;47.690;9.130;2023-03-30T02:18:09;10.50;99.90
11908;DHT22;6014;47.690;9.130;2023-03-30T02:20:37;10.50;99.90
11908;DHT22;6014;47.690;9.130;2023-03-30T02:23:06;10.50;99.90
11908;DHT22;6014;47.690;9.130;2023-03-30T02:25:34;10.50;99.90
11908;DHT22;6014;47.690;9.130;2023-03-30T02:28:06;10.50;99.90
11908;DHT22;6014;47.690;9.130;2023-03-30T02:30:37;10.50;99.90
11908;DHT22;6014;47.690;9.130;2023-03-30T02:33:07;10.50;99.90
11908;DHT22;6014;47.690;9.130;2023-03-30T02:35:56;10.40;99.90
11908;DHT22;6014;47.690;9.130;2023-03-30T02:38:46;10.30;99.90
11908;DHT22;6014;47.690;9.130;2023-03-30T02:41:27;10.20;99.90
11908;DHT22;6014;47.690;9.130;2023-03-30T02:44:05;10.10;99.90
11908;DHT22;6014;47.690;9.130;2023-03-30T02:46:47;10.00;99.90
11908;DHT22;6014;47.690;9.130;2023-03-30T02:49:25;9.90;99.90
11908;DHT22;6014;47.690;9.130;2023-03-30T02:52:02;9.80;99.90
11908;DHT22;6014;47.690;9.130;2023-03-30T02:54:43;9.80;99.90
11908;DHT22;6014;47.690;9.130;2023-03-30T02:57:21;9.90;99.90
11908;DHT22;6014;47.690;9.130;2023-03-30T02:59:56;9.90;99.90
11908;DHT22;6014;47.690;9.130;2023-03-30T03:02:29;9.80;99.90
11908;DHT22;6014;47.690;9.130;2023-03-30T03:05:01;9.80;99.90
11908;DHT22;6014;47.690;9.130;2023-03-30T03:07:30;9.80;99.90
11908;DHT22;6014;47.690;9.130;2023-03-30T03:10:00;9.70;99.90
11908;DHT22;6014;47.690;9.130;2023-03-30T03:12:28;9.70;99.90
11908;DHT22;6014;47.690;9.130;2023-03-30T03:14:57;9.90;99.90
11908;DHT22;6014;47.690;9.130;2023-03-30T03:17:27;10.20;99.90
11908;DHT22;6014;47.690;9.130;2023-03-30T03:20:00;10.20;99.90
11908;DHT22;6014;47.690;9.130;2023-03-30T03:22:29;10.10;99.90
11908;DHT22;6014;47.690;9.130;2023-03-30T03:24:57;10.10;99.90
11908;DHT22;6014;47.690;9.130;2023-03-30T03:27:25;10.10;99.90
11908;DHT22;6014;47.690;9.130;2023-03-30T03:29:53;10.10;99.90
11908;DHT22;6014;47.690;9.130;2023-03-30T03:32:23;10.10;99.90
11908;DHT22;6014;47.690;9.130;2023-03-30T03:34:51;10.10;99.90
11908;DHT22;6014;47.690;9.130;2023-03-30T03:37:19;10.00;99.90
11908;DHT22;6014;47.690;9.130;2023-03-30T03:39:47;10.00;99.90
11908;DHT22;6014;47.690;9.130;2023-03-30T03:42:15;10.00;99.90
11908;DHT22;6014;47.690;9.130;2023-03-30T03:44:43;10.00;99.90
11908;DHT22;6014;47.690;9.130;2023-03-30T03:47:11;10.00;99.90
11908;DHT22;6014;47.690;9.130;2023-03-30T03:49:43;10.00;99.90
11908;DHT22;6014;47.690;9.130;2023-03-30T03:52:11;9.90;99.90
11908;DHT22;6014;47.690;9.130;2023-03-30T03:54:39;9.80;99.90
11908;DHT22;6014;47.690;9.130;2023-03-30T03:57:07;9.80;99.90
11908;DHT22;6014;47.690;9.130;2023-03-30T03:59:36;9.80;99.90
11908;DHT22;6014;47.690;9.130;2023-03-30T04:02:04;9.80;99.90
11908;DHT22;6014;47.690;9.130;2023-03-30T04:04:32;9.80;99.90
11908;DHT22;6014;47.690;9.130;2023-03-30T04:07:01;9.90;99.90
11908;DHT22;6014;47.690;9.130;2023-03-30T04:09:29;9.90;99.90
11908;DHT22;6014;47.690;9.130;2023-03-30T04:11:57;9.90;99.90
11908;DHT22;6014;47.690;9.130;2023-03-30T04:14:25;9.90;99.90
11908;DHT22;6014;47.690;9.130;2023-03-30T04:16:53;9.80;99.90
11908;DHT22;6014;47.690;9.130;2023-03-30T04:19:23;9.80;99.90
11908;DHT22;6014;47.690;9.130;2023-03-30T04:21:53;9.80;99.90
11908;DHT22;6014;47.690;9.130;2023-03-30T04:24:22;9.80;99.90
11908;DHT22;6014;47.690;9.130;2023-03-30T04:26:51;9.80;99.90
11908;DHT22;6014;47.690;9.130;2023-03-30T04:29:19;9.90;99.90
11908;DHT22;6014;47.690;9.130;2023-03-30T04:31:47;10.00;99.90
11908;DHT22;6014;47.690;9.130;2023-03-30T04:34:17;10.10;99.90
11908;DHT22;6014;47.690;9.130;2023-03-30T04:36:47;10.20;99.90
11908;DHT22;6014;47.690;9.130;2023-03-30T04:39:15;10.20;99.90
11908;DHT22;6014;47.690;9.130;2023-03-30T04:41:47;10.20;99.90
11908;DHT22;6014;47.690;9.130;2023-03-30T04:44:17;10.20;99.90
11908;DHT22;6014;47.690;9.130;2023-03-30T04:46:46;10.20;99.90
11908;DHT22;6014;47.690;9.130;2023-03-30T04:49:14;10.10;99.90
11908;DHT22;6014;47.690;9.130;2023-03-30T04:51:42;10.10;99.90
11908;DHT22;6014;47.690;9.130;2023-03-30T04:54:10;10.00;99.90
11908;DHT22;6014;47.690;9.130;2023-03-30T04:56:39;9.90;99.90
11908;DHT22;6014;47.690;9.130;2023-03-30T04:59:08;9.90;99.90
11908;DHT22;6014;47.690;9.130;2023-03-30T05:01:36;9.80;99.90
11908;DHT22;6014;47.690;9.130;2023-03-30T05:04:04;9.80;99.90
11908;DHT22;6014;47.690;9.130;2023-03-30T05:06:33;9.70;99.90
11908;DHT22;6014;47.690;9.130;2023-03-30T05:09:01;9.60;99.90
11908;DHT22;6014;47.690;9.130;2023-03-30T05:11:29;9.50;99.90
11908;DHT22;6014;47.690;9.130;2023-03-30T05:13:57;9.40;99.90
11908;DHT22;6014;47.690;9.130;2023-03-30T05:16:26;9.30;99.90
11908;DHT22;6014;47.690;9.130;2023-03-30T05:18:55;9.30;99.90
11908;DHT22;6014;47.690;9.130;2023-03-30T05:21:23;9.20;99.90
11908;DHT22;6014;47.690;9.130;2023-03-30T05:23:51;9.20;99.90
11908;DHT22;6014;47.690;9.130;2023-03-30T05:26:19;9.20;99.90
11908;DHT22;6014;47.690;9.130;2023-03-30T05:28:47;9.20;99.90
11908;DHT22;6014;47.690;9.130;2023-03-30T05:31:16;9.30;99.90
11908;DHT22;6014;47.690;9.130;2023-03-30T05:33:46;9.30;99.90
11908;DHT22;6014;47.690;9.130;2023-03-30T05:36:14;9.30;99.90
11908;DHT22;6014;47.690;9.130;2023-03-30T05:38:43;9.40;99.90
11908;DHT22;6014;47.690;9.130;2023-03-30T05:41:11;9.40;99.90
11908;DHT22;6014;47.690;9.130;2023-03-30T05:43:39;9.50;99.90
11908;DHT22;6014;47.690;9.130;2023-03-30T05:46:07;9.60;99.90
11908;DHT22;6014;47.690;9.130;2023-03-30T05:48:35;9.70;99.90
11908;DHT22;6014;47.690;9.130;2023-03-30T05:51:05;9.70;99.90
11908;DHT22;6014;47.690;9.130;2023-03-30T05:53:34;9.80;99.90
11908;DHT22;6014;47.690;9.130;2023-03-30T05:56:02;9.70;99.90
11908;DHT22;6014;47.690;9.130;2023-03-30T05:58:30;9.70;99.90
11908;DHT22;6014;47.690;9.130;2023-03-30T06:00:58;9.80;99.90
11908;DHT22;6014;47.690;9.130;2023-03-30T06:03:26;9.90;99.90
11908;DHT22;6014;47.690;9.130;2023-03-30T06:05:55;9.90;99.90
11908;DHT22;6014;47.690;9.130;2023-03-30T06:08:24;9.90;99.90
11908;DHT22;6014;47.690;9.130;2023-03-30T06:10:54;9.90;99.90
11908;DHT22;6014;47.690;9.130;2023-03-30T06:13:22;9.90;99.90
11908;DHT22;6014;47.690;9.130;2023-03-30T06:15:50;9.90;99.90
11908;DHT22;6014;47.690;9.130;2023-03-30T06:18:18;9.90;99.90
11908;DHT22;6014;47.690;9.130;2023-03-30T06:20:47;10.00;99.90
11908;DHT22;6014;47.690;9.130;2023-03-30T06:23:16;10.00;99.90
11908;DHT22;6014;47.690;9.130;2023-03-30T06:25:46;10.00;99.90
11908;DHT22;6014;47.690;9.130;2023-03-30T06:28:19;10.10;99.90
11908;DHT22;6014;47.690;9.130;2023-03-30T06:30:47;10.10;99.90
11908;DHT22;6014;47.690;9.130;2023-03-30T06:33:15;10.20;99.90
11908;DHT22;6014;47.690;9.130;2023-03-30T06:35:44;10.20;99.90
11908;DHT22;6014;47.690;9.130;2023-03-30T06:38:13;10.20;99.90
11908;DHT22;6014;47.690;9.130;2023-03-30T06:40:41;10.40;99.90
11908;DHT22;6014;47.690;9.130;2023-03-30T06:43:15;10.40;99.90
11908;DHT22;6014;47.690;9.130;2023-03-30T06:45:48;10.40;99.90
11908;DHT22;6014;47.690;9.130;2023-03-30T06:48:16;10.50;99.90
11908;DHT22;6014;47.690;9.130;2023-03-30T06:50:46;10.60;99.90
11908;DHT22;6014;47.690;9.130;2023-03-30T06:53:14;10.60;99.90
11908;DHT22;6014;47.690;9.130;2023-03-30T06:55:43;10.70;99.90
11908;DHT22;6014;47.690;9.130;2023-03-30T06:58:12;10.80;99.90
11908;DHT22;6014;47.690;9.130;2023-03-30T07:00:40;10.80;99.90
11908;DHT22;6014;47.690;9.130;2023-03-30T07:03:08;11.00;99.90
11908;DHT22;6014;47.690;9.130;2023-03-30T07:05:37;11.00;99.90
11908;DHT22;6014;47.690;9.130;2023-03-30T07:08:05;11.00;99.90
11908;DHT22;6014;47.690;9.130;2023-03-30T07:10:33;11.10;99.90
11908;DHT22;6014;47.690;9.130;2023-03-30T07:13:01;11.20;99.90
11908;DHT22;6014;47.690;9.130;2023-03-30T07:15:31;11.30;99.90
11908;DHT22;6014;47.690;9.130;2023-03-30T07:17:59;11.40;99.90
11908;DHT22;6014;47.690;9.130;2023-03-30T07:20:27;11.40;99.90
11908;DHT22;6014;47.690;9.130;2023-03-30T07:22:55;11.40;99.90
11908;DHT22;6014;47.690;9.130;2023-03-30T07:25:23;11.40;99.90
11908;DHT22;6014;47.690;9.130;2023-03-30T07:27:51;11.30;99.90
11908;DHT22;6014;47.690;9.130;2023-03-30T07:30:19;11.40;99.90
11908;DHT22;6014;47.690;9.130;2023-03-30T07:32:50;11.50;99.90
11908;DHT22;6014;47.690;9.130;2023-03-30T07:35:18;11.70;99.90
11908;DHT22;6014;47.690;9.130;2023-03-30T07:37:46;11.80;99.90
11908;DHT22;6014;47.690;9.130;2023-03-30T07:40:17;11.90;99.90
11908;DHT22;6014;47.690;9.130;2023-03-30T07:42:45;11.90;99.90
11908;DHT22;6014;47.690;9.130;2023-03-30T07:45:14;11.90;99.90
11908;DHT22;6014;47.690;9.130;2023-03-30T07:47:42;12.00;99.90
11908;DHT22;6014;47.690;9.130;2023-03-30T07:50:12;12.10;99.90
11908;DHT22;6014;47.690;9.130;2023-03-30T07:52:40;12.50;99.90
11908;DHT22;6014;47.690;9.130;2023-03-30T07:55:08;12.80;99.90
11908;DHT22;6014;47.690;9.130;2023-03-30T07:57:36;13.00;99.90
11908;DHT22;6014;47.690;9.130;2023-03-30T08:00:05;13.00;99.90
11908;DHT22;6014;47.690;9.130;2023-03-30T08:02:36;12.90;99.90
11908;DHT22;6014;47.690;9.130;2023-03-30T08:05:05;12.90;99.90
11908;DHT22;6014;47.690;9.130;2023-03-30T08:07:34;13.00;99.90
11908;DHT22;6014;47.690;9.130;2023-03-30T08:10:03;13.00;99.90
11908;DHT22;6014;47.690;9.130;2023-03-30T08:12:31;13.10;99.90
11908;DHT22;6014;47.690;9.130;2023-03-30T08:14:59;13.20;99.90
11908;DHT22;6014;47.690;9.130;2023-03-30T08:17:27;13.40;99.90
11908;DHT22;6014;47.690;9.130;2023-03-30T08:19:56;13.20;99.90
11908;DHT22;6014;47.690;9.130;2023-03-30T08:22:24;13.30;99.90
11908;DHT22;6014;47.690;9.130;2023-03-30T08:24:54;13.40;99.90
11908;DHT22;6014;47.690;9.130;2023-03-30T08:27:22;13.60;99.90
11908;DHT22;6014;47.690;9.130;2023-03-30T08:29:51;13.70;99.90
11908;DHT22;6014;47.690;9.130;2023-03-30T08:32:23;13.70;99.90
11908;DHT22;6014;47.690;9.130;2023-03-30T08:34:53;13.80;99.90
11908;DHT22;6014;47.690;9.130;2023-03-30T08:37:21;13.90;99.90
11908;DHT22;6014;47.690;9.130;2023-03-30T08:39:50;14.00;99.90
11908;DHT22;6014;47.690;9.130;2023-03-30T08:42:40;14.30;99.90
11908;DHT22;6014;47.690;9.130;2023-03-30T08:45:11;14.40;99.90
11908;DHT22;6014;47.690;9.130;2023-03-30T08:47:41;14.60;99.90
11908;DHT22;6014;47.690;9.130;2023-03-30T08:50:14;14.80;99.90
11908;DHT22;6014;47.690;9.130;2023-03-30T08:52:43;14.70;99.90
11908;DHT22;6014;47.690;9.130;2023-03-30T08:55:20;14.50;99.90
11908;DHT22;6014;47.690;9.130;2023-03-30T08:57:57;14.60;99.90
11908;DHT22;6014;47.690;9.130;2023-03-30T09:00:35;14.50;99.90
11908;DHT22;6014;47.690;9.130;2023-03-30T09:03:14;14.50;99.90
11908;DHT22;6014;47.690;9.130;2023-03-30T09:05:48;14.60;99.90
11908;DHT22;6014;47.690;9.130;2023-03-30T09:08:19;14.70;99.90
11908;DHT22;6014;47.690;9.130;2023-03-30T09:10:51;14.70;99.90
11908;DHT22;6014;47.690;9.130;2023-03-30T09:13:23;14.70;99.90
11908;DHT22;6014;47.690;9.130;2023-03-30T09:15:55;14.90;99.90
11908;DHT22;6014;47.690;9.130;2023-03-30T09:18:27;15.20;99.90
11908;DHT22;6014;47.690;9.130;2023-03-30T09:20:58;15.50;99.90
11908;DHT22;6014;47.690;9.130;2023-03-30T09:23:28;15.50;99.90
11908;DHT22;6014;47.690;9.130;2023-03-30T09:26:01;15.70;99.90
11908;DHT22;6014;47.690;9.130;2023-03-30T09:28:35;15.60;99.90
11908;DHT22;6014;47.690;9.130;2023-03-30T09:31:10;15.60;99.90
11908;DHT22;6014;47.690;9.130;2023-03-30T09:33:43;15.50;99.90
11908;DHT22;6014;47.690;9.130;2023-03-30T09:36:14;15.40;99.90
11908;DHT22;6014;47.690;9.130;2023-03-30T09:38:43;15.20;99.90
11908;DHT22;6014;47.690;9.130;2023-03-30T09:41:37;15.00;99.90
11908;DHT22;6014;47.690;9.130;2023-03-30T09:44:18;14.80;99.90
11908;DHT22;6014;47.690;9.130;2023-03-30T09:46:52;14.80;99.90
11908;DHT22;6014;47.690;9.130;2023-03-30T09:49:25;14.80;99.90
11908;DHT22;6014;47.690;9.130;2023-03-30T09:51:59;14.80;99.90
11908;DHT22;6014;47.690;9.130;2023-03-30T09:54:34;14.80;99.90
11908;DHT22;6014;47.690;9.130;2023-03-30T09:57:04;14.90;99.90
11908;DHT22;6014;47.690;9.130;2023-03-30T09:59:35;15.20;99.90
11908;DHT22;6014;47.690;9.130;2023-03-30T10:02:16;15.30;99.90
11908;DHT22;6014;47.690;9.130;2023-03-30T10:04:59;15.30;99.90
11908;DHT22;6014;47.690;9.130;2023-03-30T10:07:32;15.30;99.90
11908;DHT22;6014;47.690;9.130;2023-03-30T10:10:10;15.00;99.90
11908;DHT22;6014;47.690;9.130;2023-03-30T10:12:40;14.90;99.90
11908;DHT22;6014;47.690;9.130;2023-03-30T10:15:14;14.20;99.90
11908;DHT22;6014;47.690;9.130;2023-03-30T10:17:45;13.40;99.90
11908;DHT22;6014;47.690;9.130;2023-03-30T10:20:21;13.00;99.90
11908;DHT22;6014;47.690;9.130;2023-03-30T10:22:52;12.70;99.90
11908;DHT22;6014;47.690;9.130;2023-03-30T10:25:22;12.50;99.90
11908;DHT22;6014;47.690;9.130;2023-03-30T10:27:51;12.30;99.90
11908;DHT22;6014;47.690;9.130;2023-03-30T10:30:24;12.10;99.90
11908;DHT22;6014;47.690;9.130;2023-03-30T10:32:56;11.90;99.90
11908;DHT22;6014;47.690;9.130;2023-03-30T10:35:32;11.80;99.90
11908;DHT22;6014;47.690;9.130;2023-03-30T10:38:03;11.70;99.90
11908;DHT22;6014;47.690;9.130;2023-03-30T10:40:33;11.70;99.90
11908;DHT22;6014;47.690;9.130;2023-03-30T10:43:05;11.70;99.90
11908;DHT22;6014;47.690;9.130;2023-03-30T10:45:39;11.70;99.90
11908;DHT22;6014;47.690;9.130;2023-03-30T10:48:22;11.80;99.90
11908;DHT22;6014;47.690;9.130;2023-03-30T10:51:00;11.80;99.90
11908;DHT22;6014;47.690;9.130;2023-03-30T10:53:39;11.90;99.90
11908;DHT22;6014;47.690;9.130;2023-03-30T10:56:18;12.00;99.90
11908;DHT22;6014;47.690;9.130;2023-03-30T10:58:58;12.10;99.90
11908;DHT22;6014;47.690;9.130;2023-03-30T11:01:36;12.30;99.90
11908;DHT22;6014;47.690;9.130;2023-03-30T11:04:13;12.50;99.90
11908;DHT22;6014;47.690;9.130;2023-03-30T11:06:52;12.50;99.90
11908;DHT22;6014;47.690;9.130;2023-03-30T11:09:25;12.60;99.90
11908;DHT22;6014;47.690;9.130;2023-03-30T11:11:58;12.60;99.90
11908;DHT22;6014;47.690;9.130;2023-03-30T11:14:42;12.50;99.90
11908;DHT22;6014;47.690;9.130;2023-03-30T11:17:20;12.60;99.90
11908;DHT22;6014;47.690;9.130;2023-03-30T11:19:54;12.50;99.90
11908;DHT22;6014;47.690;9.130;2023-03-30T11:22:29;12.50;99.90
11908;DHT22;6014;47.690;9.130;2023-03-30T11:25:00;12.40;99.90
11908;DHT22;6014;47.690;9.130;2023-03-30T11:27:34;12.40;99.90
11908;DHT22;6014;47.690;9.130;2023-03-30T11:30:09;12.40;99.90
11908;DHT22;6014;47.690;9.130;2023-03-30T11:32:45;12.50;99.90
11908;DHT22;6014;47.690;9.130;2023-03-30T11:35:18;12.60;99.90
11908;DHT22;6014;47.690;9.130;2023-03-30T11:37:52;12.70;99.90
11908;DHT22;6014;47.690;9.130;2023-03-30T11:40:23;12.90;99.90
11908;DHT22;6014;47.690;9.130;2023-03-30T11:42:53;13.00;99.90
11908;DHT22;6014;47.690;9.130;2023-03-30T11:45:41;13.10;99.90
11908;DHT22;6014;47.690;9.130;2023-03-30T11:51:37;13.00;99.90
11908;DHT22;6014;47.690;9.130;2023-03-30T11:54:28;12.90;99.90
11908;DHT22;6014;47.690;9.130;2023-03-30T11:57:05;13.00;99.90
11908;DHT22;6014;47.690;9.130;2023-03-30T11:59:43;12.90;99.90
11908;DHT22;6014;47.690;9.130;2023-03-30T12:02:22;12.90;99.90
11908;DHT22;6014;47.690;9.130;2023-03-30T12:04:59;12.90;99.90
11908;DHT22;6014;47.690;9.130;2023-03-30T12:07:37;13.10;99.90
11908;DHT22;6014;47.690;9.130;2023-03-30T12:10:14;13.20;99.90
11908;DHT22;6014;47.690;9.130;2023-03-30T12:12:46;13.20;99.90
11908;DHT22;6014;47.690;9.130;2023-03-30T12:15:29;13.10;99.90
11908;DHT22;6014;47.690;9.130;2023-03-30T12:18:04;13.00;99.90
11908;DHT22;6014;47.690;9.130;2023-03-30T12:20:43;12.90;99.90
11908;DHT22;6014;47.690;9.130;2023-03-30T12:23:26;12.90;99.90
11908;DHT22;6014;47.690;9.130;2023-03-30T12:26:16;12.80;99.90
11908;DHT22;6014;47.690;9.130;2023-03-30T12:28:49;12.70;99.90
11908;DHT22;6014;47.690;9.130;2023-03-30T12:31:48;12.50;99.90
11908;DHT22;6014;47.690;9.130;2023-03-30T12:34:17;12.00;99.90
11908;DHT22;6014;47.690;9.130;2023-03-30T12:36:48;11.70;99.90
11908;DHT22;6014;47.690;9.130;2023-03-30T12:39:24;11.50;99.90
11908;DHT22;6014;47.690;9.130;2023-03-30T12:42:02;11.50;99.90
11908;DHT22;6014;47.690;9.130;2023-03-30T12:44:48;11.40;99.90
11908;DHT22;6014;47.690;9.130;2023-03-30T12:47:35;11.40;99.90
11908;DHT22;6014;47.690;9.130;2023-03-30T12:50:30;11.50;99.90
11908;DHT22;6014;47.690;9.130;2023-03-30T12:55:53;11.70;99.90
11908;DHT22;6014;47.690;9.130;2023-03-30T12:58:46;11.70;99.90
11908;DHT22;6014;47.690;9.130;2023-03-30T13:01:25;11.70;99.90
11908;DHT22;6014;47.690;9.130;2023-03-30T13:04:00;11.70;99.90
11908;DHT22;6014;47.690;9.130;2023-03-30T13:06:31;11.80;99.90
11908;DHT22;6014;47.690;9.130;2023-03-30T13:09:29;11.70;99.90
11908;DHT22;6014;47.690;9.130;2023-03-30T13:12:34;11.70;99.90
11908;DHT22;6014;47.690;9.130;2023-03-30T13:15:28;11.70;99.90
11908;DHT22;6014;47.690;9.130;2023-03-30T13:17:58;11.70;99.90
11908;DHT22;6014;47.690;9.130;2023-03-30T13:20:29;11.70;99.90
11908;DHT22;6014;47.690;9.130;2023-03-30T13:26:01;11.80;99.90
11908;DHT22;6014;47.690;9.130;2023-03-30T13:28:35;11.80;99.90
11908;DHT22;6014;47.690;9.130;2023-03-30T13:31:36;12.00;99.90
11908;DHT22;6014;47.690;9.130;2023-03-30T13:34:16;12.20;99.90
11908;DHT22;6014;47.690;9.130;2023-03-30T13:36:55;12.70;99.90
11908;DHT22;6014;47.690;9.130;2023-03-30T13:39:32;13.10;99.90
11908;DHT22;6014;47.690;9.130;2023-03-30T13:42:34;13.40;99.90
11908;DHT22;6014;47.690;9.130;2023-03-30T13:45:11;13.90;99.90
11908;DHT22;6014;47.690;9.130;2023-03-30T13:47:53;14.00;99.90
11908;DHT22;6014;47.690;9.130;2023-03-30T13:50:25;13.70;99.90
11908;DHT22;6014;47.690;9.130;2023-03-30T13:52:56;13.50;99.90
11908;DHT22;6014;47.690;9.130;2023-03-30T13:55:28;13.30;99.90
11908;DHT22;6014;47.690;9.130;2023-03-30T13:58:02;13.20;99.90
11908;DHT22;6014;47.690;9.130;2023-03-30T14:00:38;13.50;99.90
11908;DHT22;6014;47.690;9.130;2023-03-30T14:03:30;14.10;99.90
11908;DHT22;6014;47.690;9.130;2023-03-30T14:06:00;14.50;99.90
11908;DHT22;6014;47.690;9.130;2023-03-30T14:08:31;14.70;99.90
11908;DHT22;6014;47.690;9.130;2023-03-30T14:11:10;15.20;99.90
11908;DHT22;6014;47.690;9.130;2023-03-30T14:13:42;15.30;99.90
11908;DHT22;6014;47.690;9.130;2023-03-30T14:16:17;15.30;99.90
11908;DHT22;6014;47.690;9.130;2023-03-30T14:18:46;15.40;99.90
11908;DHT22;6014;47.690;9.130;2023-03-30T14:21:18;15.50;99.90
11908;DHT22;6014;47.690;9.130;2023-03-30T14:23:48;15.80;99.90
11908;DHT22;6014;47.690;9.130;2023-03-30T14:26:22;15.50;99.90
11908;DHT22;6014;47.690;9.130;2023-03-30T14:28:55;15.70;99.90
11908;DHT22;6014;47.690;9.130;2023-03-30T14:31:24;16.10;99.90
11908;DHT22;6014;47.690;9.130;2023-03-30T14:33:53;16.40;99.90
11908;DHT22;6014;47.690;9.130;2023-03-30T14:36:22;16.30;99.90
11908;DHT22;6014;47.690;9.130;2023-03-30T14:38:51;16.10;99.90
11908;DHT22;6014;47.690;9.130;2023-03-30T14:41:22;16.00;99.90
11908;DHT22;6014;47.690;9.130;2023-03-30T14:43:55;16.20;99.90
11908;DHT22;6014;47.690;9.130;2023-03-30T14:46:27;15.60;99.90
11908;DHT22;6014;47.690;9.130;2023-03-30T14:48:57;15.50;99.90
11908;DHT22;6014;47.690;9.130;2023-03-30T14:51:27;15.50;99.90
11908;DHT22;6014;47.690;9.130;2023-03-30T14:54:03;15.60;99.90
11908;DHT22;6014;47.690;9.130;2023-03-30T14:56:32;16.00;99.90
11908;DHT22;6014;47.690;9.130;2023-03-30T14:59:01;16.30;99.90
11908;DHT22;6014;47.690;9.130;2023-03-30T15:01:30;16.10;99.90
11908;DHT22;6014;47.690;9.130;2023-03-30T15:04:02;15.90;99.90
11908;DHT22;6014;47.690;9.130;2023-03-30T15:06:34;15.70;99.90
11908;DHT22;6014;47.690;9.130;2023-03-30T15:09:07;15.50;99.90
11908;DHT22;6014;47.690;9.130;2023-03-30T15:11:37;16.00;99.90
11908;DHT22;6014;47.690;9.130;2023-03-30T15:14:08;16.50;99.90
11908;DHT22;6014;47.690;9.130;2023-03-30T15:16:38;16.20;99.90
11908;DHT22;6014;47.690;9.130;2023-03-30T15:19:11;16.70;98.30
11908;DHT22;6014;47.690;9.130;2023-03-30T15:21:40;16.70;95.60
11908;DHT22;6014;47.690;9.130;2023-03-30T15:24:13;16.80;94.90
11908;DHT22;6014;47.690;9.130;2023-03-30T15:26:46;17.00;95.70
11908;DHT22;6014;47.690;9.130;2023-03-30T15:29:18;17.00;95.60
11908;DHT22;6014;47.690;9.130;2023-03-30T15:31:57;17.40;91.50
11908;DHT22;6014;47.690;9.130;2023-03-30T15:34:33;17.80;87.60
11908;DHT22;6014;47.690;9.130;2023-03-30T15:37:01;17.40;87.00
11908;DHT22;6014;47.690;9.130;2023-03-30T15:39:31;17.40;88.30
11908;DHT22;6014;47.690;9.130;2023-03-30T15:42:02;17.30;86.10
11908;DHT22;6014;47.690;9.130;2023-03-30T15:44:34;17.30;88.40
11908;DHT22;6014;47.690;9.130;2023-03-30T15:47:05;17.60;84.60
11908;DHT22;6014;47.690;9.130;2023-03-30T15:49:39;17.40;84.00
11908;DHT22;6014;47.690;9.130;2023-03-30T15:52:11;17.90;79.80
11908;DHT22;6014;47.690;9.130;2023-03-30T15:54:42;18.20;72.90
11908;DHT22;6014;47.690;9.130;2023-03-30T15:57:18;18.00;71.70
11908;DHT22;6014;47.690;9.130;2023-03-30T15:59:51;17.90;77.80
11908;DHT22;6014;47.690;9.130;2023-03-30T16:02:34;17.90;73.90
11908;DHT22;6014;47.690;9.130;2023-03-30T16:05:06;18.10;71.80
11908;DHT22;6014;47.690;9.130;2023-03-30T16:07:36;18.30;64.90
11908;DHT22;6014;47.690;9.130;2023-03-30T16:10:11;18.40;63.70
11908;DHT22;6014;47.690;9.130;2023-03-30T16:12:41;18.20;66.30
11908;DHT22;6014;47.690;9.130;2023-03-30T16:15:15;18.00;66.00
11908;DHT22;6014;47.690;9.130;2023-03-30T16:17:43;18.10;65.90
11908;DHT22;6014;47.690;9.130;2023-03-30T16:20:15;18.40;65.40
11908;DHT22;6014;47.690;9.130;2023-03-30T16:22:43;18.40;64.50
11908;DHT22;6014;47.690;9.130;2023-03-30T16:25:13;18.30;64.20
11908;DHT22;6014;47.690;9.130;2023-03-30T16:27:41;18.20;62.20
11908;DHT22;6014;47.690;9.130;2023-03-30T16:30:16;17.80;63.40
11908;DHT22;6014;47.690;9.130;2023-03-30T16:32:46;17.90;62.50
11908;DHT22;6014;47.690;9.130;2023-03-30T16:35:15;18.00;64.00
11908;DHT22;6014;47.690;9.130;2023-03-30T16:37:43;18.00;64.40